Terminal Aerodrome Forecast
Issued by NWS

Home | Current Version | Previous Version | Text Only | Print | Product List | Glossary On
Versions: 1 2 3 4 5 6 7 8 9 10 11 12 13 14 15 16 17 18 19 20 21 22 23 24
000
FTUS43 KAPX 051502 AAB
TAFMBL
TAF AMD
KMBL 051502Z 0515/0612 VRB03KT 5SM BR OVC005
     FM051600 VRB03KT P6SM OVC008
     FM051700 28006KT P6SM SCT011 BKN050
     FM052000 27006KT P6SM SCT050
     FM060100 00000KT P6SM FEW040
      AMD LTD TO CLD VIS AND WIND=

USA.gov is the U.S. government's official web portal to all federal, state and local government web resources and services.